sensor_id;sensor_type;location;lat;lon;timestamp;pressure;altitude;pressure_sealevel;temperature;humidity
59154;BME280;44935;48.944;9.418;2023-07-16T00:00:13;98536.89;;;22.09;54.58
59154;BME280;44935;48.944;9.418;2023-07-16T00:02:40;98535.88;;;22.10;55.25
59154;BME280;44935;48.944;9.418;2023-07-16T00:05:08;98537.96;;;22.08;55.31
59154;BME280;44935;48.944;9.418;2023-07-16T00:07:35;98531.74;;;22.73;54.49
59154;BME280;44935;48.944;9.418;2023-07-16T00:10:02;98545.79;;;22.22;55.57
59154;BME280;44935;48.944;9.418;2023-07-16T00:12:30;98534.62;;;22.63;54.33
59154;BME280;44935;48.944;9.418;2023-07-16T00:14:57;98529.17;;;22.98;53.95
59154;BME280;44935;48.944;9.418;2023-07-16T00:17:24;98537.05;;;23.40;53.52
59154;BME280;44935;48.944;9.418;2023-07-16T00:19:50;98536.59;;;23.06;53.53
59154;BME280;44935;48.944;9.418;2023-07-16T00:22:17;98521.93;;;23.54;53.53
59154;BME280;44935;48.944;9.418;2023-07-16T00:24:44;98523.80;;;23.50;52.88
59154;BME280;44935;48.944;9.418;2023-07-16T00:27:11;98521.88;;;22.86;52.33
59154;BME280;44935;48.944;9.418;2023-07-16T00:29:38;98530.78;;;22.98;52.61
59154;BME280;44935;48.944;9.418;2023-07-16T00:32:06;98545.15;;;23.08;52.84
59154;BME280;44935;48.944;9.418;2023-07-16T00:34:33;98549.89;;;22.74;52.99
59154;BME280;44935;48.944;9.418;2023-07-16T00:37:00;98543.14;;;22.94;52.88
59154;BME280;44935;48.944;9.418;2023-07-16T00:39:27;98533.76;;;23.45;52.60
59154;BME280;44935;48.944;9.418;2023-07-16T00:41:53;98545.19;;;23.22;52.23
59154;BME280;44935;48.944;9.418;2023-07-16T00:44:21;98557.08;;;22.86;53.37
59154;BME280;44935;48.944;9.418;2023-07-16T00:46:48;98558.85;;;22.98;53.34
59154;BME280;44935;48.944;9.418;2023-07-16T00:49:15;98558.67;;;23.21;52.84
59154;BME280;44935;48.944;9.418;2023-07-16T00:51:43;98552.04;;;23.01;52.67
59154;BME280;44935;48.944;9.418;2023-07-16T00:54:11;98549.57;;;23.60;51.81
59154;BME280;44935;48.944;9.418;2023-07-16T00:56:38;98539.92;;;23.74;51.35
59154;BME280;44935;48.944;9.418;2023-07-16T00:59:05;98547.54;;;23.51;50.72
59154;BME280;44935;48.944;9.418;2023-07-16T01:01:32;98549.59;;;23.23;52.06
59154;BME280;44935;48.944;9.418;2023-07-16T01:03:59;98533.85;;;23.76;51.57
59154;BME280;44935;48.944;9.418;2023-07-16T01:06:30;98533.40;;;23.44;51.15
59154;BME280;44935;48.944;9.418;2023-07-16T01:09:03;98528.15;;;23.38;50.98
59154;BME280;44935;48.944;9.418;2023-07-16T01:11:34;98522.06;;;23.76;50.50
59154;BME280;44935;48.944;9.418;2023-07-16T01:14:03;98532.30;;;23.41;51.34
59154;BME280;44935;48.944;9.418;2023-07-16T01:16:32;98536.08;;;23.41;51.01
59154;BME280;44935;48.944;9.418;2023-07-16T01:18:59;98561.27;;;23.31;51.71
59154;BME280;44935;48.944;9.418;2023-07-16T01:21:31;98574.33;;;23.20;51.74
59154;BME280;44935;48.944;9.418;2023-07-16T01:24:12;98584.25;;;22.95;52.32
59154;BME280;44935;48.944;9.418;2023-07-16T01:26:53;98587.21;;;22.84;52.31
59154;BME280;44935;48.944;9.418;2023-07-16T01:29:29;98592.42;;;22.90;52.75
59154;BME280;44935;48.944;9.418;2023-07-16T01:31:59;98586.97;;;23.09;52.65
59154;BME280;44935;48.944;9.418;2023-07-16T01:34:28;98589.70;;;22.79;52.36
59154;BME280;44935;48.944;9.418;2023-07-16T01:36:56;98591.27;;;23.20;52.43
59154;BME280;44935;48.944;9.418;2023-07-16T01:39:23;98589.79;;;23.22;51.69
59154;BME280;44935;48.944;9.418;2023-07-16T01:41:50;98585.90;;;23.17;51.62
59154;BME280;44935;48.944;9.418;2023-07-16T01:44:17;98594.10;;;22.99;52.69
59154;BME280;44935;48.944;9.418;2023-07-16T01:46:44;98599.63;;;22.67;52.53
59154;BME280;44935;48.944;9.418;2023-07-16T01:49:11;98597.01;;;22.41;53.18
59154;BME280;44935;48.944;9.418;2023-07-16T01:51:37;98599.48;;;22.45;52.38
59154;BME280;44935;48.944;9.418;2023-07-16T01:54:04;98602.51;;;22.68;52.14
59154;BME280;44935;48.944;9.418;2023-07-16T01:56:31;98606.35;;;22.63;52.07
59154;BME280;44935;48.944;9.418;2023-07-16T01:58:58;98603.90;;;22.35;53.06
59154;BME280;44935;48.944;9.418;2023-07-16T02:01:25;98593.64;;;22.43;53.00
59154;BME280;44935;48.944;9.418;2023-07-16T02:03:52;98588.25;;;22.74;52.12
59154;BME280;44935;48.944;9.418;2023-07-16T02:06:19;98577.88;;;21.92;53.51
59154;BME280;44935;48.944;9.418;2023-07-16T02:08:46;98568.09;;;22.48;52.19
59154;BME280;44935;48.944;9.418;2023-07-16T02:11:13;98592.04;;;23.09;50.28
59154;BME280;44935;48.944;9.418;2023-07-16T02:13:39;98614.01;;;22.76;51.89
59154;BME280;44935;48.944;9.418;2023-07-16T02:16:06;98624.48;;;22.32;52.39
59154;BME280;44935;48.944;9.418;2023-07-16T02:18:33;98620.05;;;22.87;52.01
59154;BME280;44935;48.944;9.418;2023-07-16T02:21:00;98619.60;;;22.82;52.00
59154;BME280;44935;48.944;9.418;2023-07-16T02:23:27;98629.98;;;22.86;52.41
59154;BME280;44935;48.944;9.418;2023-07-16T02:25:54;98628.43;;;22.73;52.81
59154;BME280;44935;48.944;9.418;2023-07-16T02:28:21;98596.05;;;22.34;52.57
59154;BME280;44935;48.944;9.418;2023-07-16T02:30:49;98600.46;;;22.65;51.57
59154;BME280;44935;48.944;9.418;2023-07-16T02:33:16;98609.83;;;22.08;51.39
59154;BME280;44935;48.944;9.418;2023-07-16T02:35:46;98603.43;;;22.26;51.16
59154;BME280;44935;48.944;9.418;2023-07-16T02:38:13;98609.65;;;22.12;51.97
59154;BME280;44935;48.944;9.418;2023-07-16T02:40:43;98613.52;;;22.22;51.39
59154;BME280;44935;48.944;9.418;2023-07-16T02:43:10;98619.59;;;21.88;52.46
59154;BME280;44935;48.944;9.418;2023-07-16T02:45:37;98631.64;;;21.83;51.80
59154;BME280;44935;48.944;9.418;2023-07-16T02:48:05;98633.47;;;21.89;51.70
59154;BME280;44935;48.944;9.418;2023-07-16T02:50:33;98621.53;;;22.14;51.84
59154;BME280;44935;48.944;9.418;2023-07-16T02:53:00;98620.26;;;22.18;51.42
59154;BME280;44935;48.944;9.418;2023-07-16T02:55:27;98612.09;;;22.36;51.22
59154;BME280;44935;48.944;9.418;2023-07-16T02:57:54;98605.49;;;22.53;51.26
59154;BME280;44935;48.944;9.418;2023-07-16T03:00:21;98603.30;;;22.24;51.21
59154;BME280;44935;48.944;9.418;2023-07-16T03:02:48;98604.29;;;21.80;51.56
59154;BME280;44935;48.944;9.418;2023-07-16T03:05:15;98605.06;;;21.82;51.84
59154;BME280;44935;48.944;9.418;2023-07-16T03:07:42;98612.48;;;21.82;51.33
59154;BME280;44935;48.944;9.418;2023-07-16T03:10:09;98614.13;;;21.27;51.29
59154;BME280;44935;48.944;9.418;2023-07-16T03:12:37;98608.17;;;21.68;50.62
59154;BME280;44935;48.944;9.418;2023-07-16T03:15:05;98615.50;;;21.76;51.80
59154;BME280;44935;48.944;9.418;2023-07-16T03:17:33;98627.27;;;21.69;51.98
59154;BME280;44935;48.944;9.418;2023-07-16T03:20:00;98638.14;;;21.29;51.76
59154;BME280;44935;48.944;9.418;2023-07-16T03:22:27;98635.56;;;21.54;52.37
59154;BME280;44935;48.944;9.418;2023-07-16T03:24:54;98639.43;;;21.55;51.90
59154;BME280;44935;48.944;9.418;2023-07-16T03:27:21;98638.55;;;21.35;51.76
59154;BME280;44935;48.944;9.418;2023-07-16T03:29:48;98652.16;;;21.46;51.95
59154;BME280;44935;48.944;9.418;2023-07-16T03:32:14;98655.24;;;21.54;52.06
59154;BME280;44935;48.944;9.418;2023-07-16T03:34:41;98670.12;;;21.31;52.72
59154;BME280;44935;48.944;9.418;2023-07-16T03:37:08;98686.05;;;21.04;53.14
59154;BME280;44935;48.944;9.418;2023-07-16T03:39:35;98697.26;;;20.93;53.32
59154;BME280;44935;48.944;9.418;2023-07-16T03:42:02;98700.26;;;21.00;52.88
59154;BME280;44935;48.944;9.418;2023-07-16T03:44:30;98685.72;;;21.40;52.57
59154;BME280;44935;48.944;9.418;2023-07-16T03:46:57;98680.55;;;21.27;52.37
59154;BME280;44935;48.944;9.418;2023-07-16T03:49:24;98671.62;;;21.38;49.41
59154;BME280;44935;48.944;9.418;2023-07-16T03:51:50;98699.35;;;21.29;51.58
59154;BME280;44935;48.944;9.418;2023-07-16T03:54:17;98707.94;;;21.37;51.86
59154;BME280;44935;48.944;9.418;2023-07-16T03:56:44;98701.78;;;20.98;52.87
59154;BME280;44935;48.944;9.418;2023-07-16T03:59:11;98705.11;;;20.98;52.82
59154;BME280;44935;48.944;9.418;2023-07-16T04:01:38;98713.72;;;21.15;53.39
59154;BME280;44935;48.944;9.418;2023-07-16T04:04:05;98723.81;;;20.80;52.73
59154;BME280;44935;48.944;9.418;2023-07-16T04:06:33;98736.19;;;20.74;53.32
59154;BME280;44935;48.944;9.418;2023-07-16T04:09:00;98745.88;;;20.83;53.05
59154;BME280;44935;48.944;9.418;2023-07-16T04:11:27;98749.32;;;21.00;52.87
59154;BME280;44935;48.944;9.418;2023-07-16T04:13:53;98762.10;;;20.99;52.73
59154;BME280;44935;48.944;9.418;2023-07-16T04:16:20;98757.33;;;20.92;53.23
59154;BME280;44935;48.944;9.418;2023-07-16T04:18:47;98754.07;;;21.17;52.86
59154;BME280;44935;48.944;9.418;2023-07-16T04:21:14;98751.69;;;21.42;51.21
59154;BME280;44935;48.944;9.418;2023-07-16T04:23:41;98766.94;;;21.26;51.68
59154;BME280;44935;48.944;9.418;2023-07-16T04:26:08;98764.38;;;21.07;51.41
59154;BME280;44935;48.944;9.418;2023-07-16T04:28:35;98750.12;;;21.55;51.32
59154;BME280;44935;48.944;9.418;2023-07-16T04:31:02;98738.40;;;21.15;51.35
59154;BME280;44935;48.944;9.418;2023-07-16T04:33:29;98732.34;;;21.60;50.99
59154;BME280;44935;48.944;9.418;2023-07-16T04:35:56;98737.84;;;21.65;50.70
59154;BME280;44935;48.944;9.418;2023-07-16T04:38:23;98744.24;;;21.34;50.40
59154;BME280;44935;48.944;9.418;2023-07-16T04:40:49;98753.13;;;21.25;50.62
59154;BME280;44935;48.944;9.418;2023-07-16T04:43:16;98748.76;;;21.17;51.57
59154;BME280;44935;48.944;9.418;2023-07-16T04:45:44;98756.95;;;21.11;51.17
59154;BME280;44935;48.944;9.418;2023-07-16T04:48:11;98760.53;;;21.06;50.94
59154;BME280;44935;48.944;9.418;2023-07-16T04:50:38;98756.49;;;21.26;50.67
59154;BME280;44935;48.944;9.418;2023-07-16T04:53:05;98765.82;;;21.20;51.87
59154;BME280;44935;48.944;9.418;2023-07-16T04:55:35;98778.33;;;21.13;51.08
59154;BME280;44935;48.944;9.418;2023-07-16T04:58:03;98778.64;;;20.63;51.30
59154;BME280;44935;48.944;9.418;2023-07-16T05:00:31;98793.97;;;21.00;51.42
59154;BME280;44935;48.944;9.418;2023-07-16T05:02:58;98791.53;;;21.49;51.64
59154;BME280;44935;48.944;9.418;2023-07-16T05:05:25;98797.49;;;21.32;51.35
59154;BME280;44935;48.944;9.418;2023-07-16T05:07:52;98796.47;;;21.01;51.51
59154;BME280;44935;48.944;9.418;2023-07-16T05:10:19;98794.08;;;21.21;50.80
59154;BME280;44935;48.944;9.418;2023-07-16T05:12:46;98790.32;;;21.11;51.19
59154;BME280;44935;48.944;9.418;2023-07-16T05:15:13;98794.98;;;21.21;50.49
59154;BME280;44935;48.944;9.418;2023-07-16T05:17:40;98787.72;;;21.22;50.93
59154;BME280;44935;48.944;9.418;2023-07-16T05:20:08;98791.21;;;22.23;49.37
59154;BME280;44935;48.944;9.418;2023-07-16T05:22:35;98795.11;;;21.84;50.16
59154;BME280;44935;48.944;9.418;2023-07-16T05:25:04;98802.59;;;21.21;50.25
59154;BME280;44935;48.944;9.418;2023-07-16T05:27:31;98799.42;;;21.82;50.84
59154;BME280;44935;48.944;9.418;2023-07-16T05:29:58;98806.65;;;21.78;49.94
59154;BME280;44935;48.944;9.418;2023-07-16T05:32:25;98807.95;;;21.52;51.24
59154;BME280;44935;48.944;9.418;2023-07-16T05:34:52;98810.88;;;21.31;51.68
59154;BME280;44935;48.944;9.418;2023-07-16T05:37:19;98799.11;;;21.51;50.56
59154;BME280;44935;48.944;9.418;2023-07-16T05:39:46;98799.09;;;21.90;49.77
59154;BME280;44935;48.944;9.418;2023-07-16T05:42:13;98808.39;;;21.69;50.65
59154;BME280;44935;48.944;9.418;2023-07-16T05:44:40;98803.36;;;21.60;49.73
59154;BME280;44935;48.944;9.418;2023-07-16T05:47:07;98805.34;;;21.66;50.74
59154;BME280;44935;48.944;9.418;2023-07-16T05:49:34;98809.32;;;21.53;50.86
59154;BME280;44935;48.944;9.418;2023-07-16T05:52:01;98818.16;;;21.42;51.82
59154;BME280;44935;48.944;9.418;2023-07-16T05:54:27;98822.88;;;21.16;50.57
59154;BME280;44935;48.944;9.418;2023-07-16T05:56:54;98812.62;;;20.58;49.81
59154;BME280;44935;48.944;9.418;2023-07-16T05:59:21;98816.08;;;20.70;49.81
59154;BME280;44935;48.944;9.418;2023-07-16T06:01:48;98818.86;;;20.27;49.13
59154;BME280;44935;48.944;9.418;2023-07-16T06:04:15;98826.20;;;20.97;50.11
59154;BME280;44935;48.944;9.418;2023-07-16T06:06:42;98825.89;;;20.63;48.72
59154;BME280;44935;48.944;9.418;2023-07-16T06:09:09;98824.00;;;20.16;48.88
59154;BME280;44935;48.944;9.418;2023-07-16T06:11:36;98829.30;;;19.81;51.58
59154;BME280;44935;48.944;9.418;2023-07-16T06:14:03;98830.01;;;19.87;49.62
59154;BME280;44935;48.944;9.418;2023-07-16T06:16:30;98822.08;;;20.76;49.94
59154;BME280;44935;48.944;9.418;2023-07-16T06:18:56;98828.87;;;21.22;48.61
59154;BME280;44935;48.944;9.418;2023-07-16T06:21:23;98823.00;;;20.98;49.12
59154;BME280;44935;48.944;9.418;2023-07-16T06:23:50;98826.94;;;21.42;48.52
59154;BME280;44935;48.944;9.418;2023-07-16T06:26:17;98828.47;;;20.95;49.26
59154;BME280;44935;48.944;9.418;2023-07-16T06:28:44;98837.68;;;21.35;48.61
59154;BME280;44935;48.944;9.418;2023-07-16T06:31:11;98846.09;;;21.96;48.34
59154;BME280;44935;48.944;9.418;2023-07-16T06:33:38;98842.07;;;21.68;48.63
59154;BME280;44935;48.944;9.418;2023-07-16T06:36:05;98848.19;;;21.45;48.81
59154;BME280;44935;48.944;9.418;2023-07-16T06:38:31;98847.29;;;21.34;49.33
59154;BME280;44935;48.944;9.418;2023-07-16T06:40:58;98844.34;;;21.41;49.01
59154;BME280;44935;48.944;9.418;2023-07-16T06:43:26;98834.27;;;21.66;48.45
59154;BME280;44935;48.944;9.418;2023-07-16T06:45:53;98830.53;;;21.46;48.23
59154;BME280;44935;48.944;9.418;2023-07-16T06:48:20;98836.47;;;21.76;49.58
59154;BME280;44935;48.944;9.418;2023-07-16T06:50:46;98832.59;;;21.56;49.58
59154;BME280;44935;48.944;9.418;2023-07-16T06:53:14;98823.86;;;21.54;45.93
59154;BME280;44935;48.944;9.418;2023-07-16T06:55:40;98834.58;;;22.00;48.40
59154;BME280;44935;48.944;9.418;2023-07-16T06:58:10;98835.69;;;21.77;46.12
59154;BME280;44935;48.944;9.418;2023-07-16T07:00:38;98831.66;;;22.35;46.67
59154;BME280;44935;48.944;9.418;2023-07-16T07:03:04;98822.01;;;22.55;46.82
59154;BME280;44935;48.944;9.418;2023-07-16T07:05:31;98824.08;;;21.71;48.14
59154;BME280;44935;48.944;9.418;2023-07-16T07:07:58;98819.02;;;22.77;46.05
59154;BME280;44935;48.944;9.418;2023-07-16T07:10:25;98824.79;;;22.43;44.58
59154;BME280;44935;48.944;9.418;2023-07-16T07:12:52;98832.98;;;22.03;47.01
59154;BME280;44935;48.944;9.418;2023-07-16T07:15:19;98837.41;;;22.08;47.96
59154;BME280;44935;48.944;9.418;2023-07-16T07:17:46;98835.39;;;22.17;47.55
59154;BME280;44935;48.944;9.418;2023-07-16T07:20:13;98839.13;;;21.23;44.40
59154;BME280;44935;48.944;9.418;2023-07-16T07:22:41;98839.53;;;21.24;44.61
59154;BME280;44935;48.944;9.418;2023-07-16T07:25:08;98839.84;;;21.20;44.72
59154;BME280;44935;48.944;9.418;2023-07-16T07:27:35;98843.15;;;21.39;45.91
59154;BME280;44935;48.944;9.418;2023-07-16T07:30:03;98830.81;;;20.56;45.69
59154;BME280;44935;48.944;9.418;2023-07-16T07:32:30;98835.40;;;20.64;43.79
59154;BME280;44935;48.944;9.418;2023-07-16T07:34:57;98832.95;;;20.99;45.19
59154;BME280;44935;48.944;9.418;2023-07-16T07:37:24;98826.38;;;21.17;43.63
59154;BME280;44935;48.944;9.418;2023-07-16T07:39:52;98820.74;;;21.63;42.67
59154;BME280;44935;48.944;9.418;2023-07-16T07:42:19;98820.83;;;22.19;42.30
59154;BME280;44935;48.944;9.418;2023-07-16T07:44:46;98826.12;;;22.33;41.96
59154;BME280;44935;48.944;9.418;2023-07-16T07:47:13;98836.79;;;21.69;42.43
59154;BME280;44935;48.944;9.418;2023-07-16T07:49:40;98847.70;;;21.53;42.77
59154;BME280;44935;48.944;9.418;2023-07-16T07:52:07;98849.91;;;20.66;42.88
59154;BME280;44935;48.944;9.418;2023-07-16T07:54:35;98855.05;;;20.12;43.94
59154;BME280;44935;48.944;9.418;2023-07-16T07:57:02;98855.96;;;21.00;43.63
59154;BME280;44935;48.944;9.418;2023-07-16T07:59:30;98847.66;;;20.86;44.94
59154;BME280;44935;48.944;9.418;2023-07-16T08:01:57;98849.84;;;21.04;43.56
59154;BME280;44935;48.944;9.418;2023-07-16T08:04:24;98852.14;;;21.26;42.75
59154;BME280;44935;48.944;9.418;2023-07-16T08:06:52;98854.81;;;20.92;45.32
59154;BME280;44935;48.944;9.418;2023-07-16T08:09:20;98861.31;;;22.43;42.29
59154;BME280;44935;48.944;9.418;2023-07-16T08:11:47;98860.70;;;21.90;42.24
59154;BME280;44935;48.944;9.418;2023-07-16T08:14:15;98861.19;;;22.12;42.06
59154;BME280;44935;48.944;9.418;2023-07-16T08:16:41;98864.73;;;22.25;40.72
59154;BME280;44935;48.944;9.418;2023-07-16T08:19:08;98861.74;;;22.07;42.13
59154;BME280;44935;48.944;9.418;2023-07-16T08:21:35;98862.97;;;21.95;41.44
59154;BME280;44935;48.944;9.418;2023-07-16T08:24:02;98860.73;;;22.35;40.70
59154;BME280;44935;48.944;9.418;2023-07-16T08:26:30;98857.40;;;23.48;41.12
59154;BME280;44935;48.944;9.418;2023-07-16T08:28:56;98860.03;;;23.47;39.68
59154;BME280;44935;48.944;9.418;2023-07-16T08:31:23;98855.50;;;23.18;40.19
59154;BME280;44935;48.944;9.418;2023-07-16T08:33:50;98855.31;;;22.53;41.72
59154;BME280;44935;48.944;9.418;2023-07-16T08:36:17;98857.29;;;21.95;40.65
59154;BME280;44935;48.944;9.418;2023-07-16T08:38:44;98853.38;;;22.31;39.75
59154;BME280;44935;48.944;9.418;2023-07-16T08:41:11;98847.85;;;22.34;40.13
59154;BME280;44935;48.944;9.418;2023-07-16T08:43:38;98843.67;;;23.17;40.77
59154;BME280;44935;48.944;9.418;2023-07-16T08:46:07;98838.90;;;22.78;39.23
59154;BME280;44935;48.944;9.418;2023-07-16T08:48:35;98829.13;;;23.09;39.19
59154;BME280;44935;48.944;9.418;2023-07-16T08:51:02;98832.53;;;23.32;39.87
59154;BME280;44935;48.944;9.418;2023-07-16T08:53:30;98840.58;;;22.65;42.98
59154;BME280;44935;48.944;9.418;2023-07-16T08:55:57;98853.23;;;23.31;39.99
59154;BME280;44935;48.944;9.418;2023-07-16T08:58:25;98854.08;;;23.19;40.33
59154;BME280;44935;48.944;9.418;2023-07-16T09:00:52;98847.75;;;23.35;38.19
59154;BME280;44935;48.944;9.418;2023-07-16T09:03:18;98852.21;;;23.04;38.41
59154;BME280;44935;48.944;9.418;2023-07-16T09:05:45;98847.22;;;21.96;38.40
59154;BME280;44935;48.944;9.418;2023-07-16T09:08:13;98851.98;;;22.51;39.15
59154;BME280;44935;48.944;9.418;2023-07-16T09:10:41;98859.12;;;23.87;36.53
59154;BME280;44935;48.944;9.418;2023-07-16T09:13:09;98863.60;;;23.65;36.05
59154;BME280;44935;48.944;9.418;2023-07-16T09:15:36;98861.30;;;24.12;35.84
59154;BME280;44935;48.944;9.418;2023-07-16T09:18:03;98862.31;;;23.96;35.60
59154;BME280;44935;48.944;9.418;2023-07-16T09:20:31;98859.63;;;23.49;37.64
59154;BME280;44935;48.944;9.418;2023-07-16T09:22:58;98863.07;;;23.00;40.34
59154;BME280;44935;48.944;9.418;2023-07-16T09:25:26;98855.66;;;23.30;37.98
59154;BME280;44935;48.944;9.418;2023-07-16T09:27:53;98842.02;;;23.00;38.19
59154;BME280;44935;48.944;9.418;2023-07-16T09:30:20;98840.84;;;24.29;38.93
59154;BME280;44935;48.944;9.418;2023-07-16T09:32:48;98843.90;;;23.84;39.59
59154;BME280;44935;48.944;9.418;2023-07-16T09:35:16;98852.34;;;24.11;36.95
59154;BME280;44935;48.944;9.418;2023-07-16T09:37:44;98855.86;;;23.99;37.82
59154;BME280;44935;48.944;9.418;2023-07-16T09:40:11;98852.35;;;22.92;37.30
59154;BME280;44935;48.944;9.418;2023-07-16T09:42:41;98846.35;;;23.47;37.99
59154;BME280;44935;48.944;9.418;2023-07-16T09:45:16;98851.27;;;23.96;37.05
59154;BME280;44935;48.944;9.418;2023-07-16T09:47:43;98850.28;;;23.99;37.26
59154;BME280;44935;48.944;9.418;2023-07-16T09:50:11;98857.16;;;24.30;37.89
59154;BME280;44935;48.944;9.418;2023-07-16T09:52:38;98855.20;;;24.57;36.58
59154;BME280;44935;48.944;9.418;2023-07-16T09:55:09;98849.56;;;23.93;36.16
59154;BME280;44935;48.944;9.418;2023-07-16T09:57:40;98848.19;;;24.00;37.42
59154;BME280;44935;48.944;9.418;2023-07-16T10:00:10;98846.37;;;24.51;35.83
59154;BME280;44935;48.944;9.418;2023-07-16T10:02:39;98837.74;;;22.83;38.66
59154;BME280;44935;48.944;9.418;2023-07-16T10:05:14;98843.31;;;23.12;38.64
59154;BME280;44935;48.944;9.418;2023-07-16T10:07:43;98844.97;;;23.78;37.49
59154;BME280;44935;48.944;9.418;2023-07-16T10:10:11;98841.88;;;23.64;36.44
59154;BME280;44935;48.944;9.418;2023-07-16T10:12:38;98836.60;;;22.89;36.67
59154;BME280;44935;48.944;9.418;2023-07-16T10:15:06;98838.23;;;23.65;36.03
59154;BME280;44935;48.944;9.418;2023-07-16T10:17:33;98838.14;;;23.48;38.13
59154;BME280;44935;48.944;9.418;2023-07-16T10:20:03;98838.25;;;24.23;37.29
59154;BME280;44935;48.944;9.418;2023-07-16T10:22:34;98836.67;;;24.11;36.04
59154;BME280;44935;48.944;9.418;2023-07-16T10:25:02;98844.67;;;24.29;36.96
59154;BME280;44935;48.944;9.418;2023-07-16T10:27:31;98845.49;;;24.25;37.22
59154;BME280;44935;48.944;9.418;2023-07-16T10:29:59;98847.05;;;24.91;35.99
59154;BME280;44935;48.944;9.418;2023-07-16T10:32:27;98836.70;;;24.58;35.51
59154;BME280;44935;48.944;9.418;2023-07-16T10:34:54;98839.65;;;25.11;35.70
59154;BME280;44935;48.944;9.418;2023-07-16T10:37:22;98834.46;;;25.64;33.63
59154;BME280;44935;48.944;9.418;2023-07-16T10:39:51;98839.32;;;25.75;32.56
59154;BME280;44935;48.944;9.418;2023-07-16T10:42:19;98834.37;;;24.99;34.08
59154;BME280;44935;48.944;9.418;2023-07-16T10:44:49;98834.34;;;25.87;33.89
59154;BME280;44935;48.944;9.418;2023-07-16T10:47:22;98832.96;;;25.98;33.22
59154;BME280;44935;48.944;9.418;2023-07-16T10:49:49;98825.81;;;25.42;32.91
59154;BME280;44935;48.944;9.418;2023-07-16T10:52:17;98824.58;;;25.85;33.42
59154;BME280;44935;48.944;9.418;2023-07-16T10:54:45;98821.35;;;25.01;33.39
59154;BME280;44935;48.944;9.418;2023-07-16T10:57:11;98824.80;;;24.58;34.89
59154;BME280;44935;48.944;9.418;2023-07-16T10:59:39;98822.72;;;25.49;34.40
59154;BME280;44935;48.944;9.418;2023-07-16T11:02:10;98824.46;;;24.58;35.60
59154;BME280;44935;48.944;9.418;2023-07-16T11:04:38;98823.77;;;25.05;34.90
59154;BME280;44935;48.944;9.418;2023-07-16T11:07:07;98820.41;;;24.84;32.76
59154;BME280;44935;48.944;9.418;2023-07-16T11:09:39;98814.19;;;24.97;35.19
59154;BME280;44935;48.944;9.418;2023-07-16T11:12:08;98817.03;;;25.78;33.20
59154;BME280;44935;48.944;9.418;2023-07-16T11:14:35;98816.78;;;23.10;37.36
59154;BME280;44935;48.944;9.418;2023-07-16T11:17:06;98814.23;;;22.01;37.86
59154;BME280;44935;48.944;9.418;2023-07-16T11:19:35;98810.04;;;23.80;35.45
59154;BME280;44935;48.944;9.418;2023-07-16T11:22:04;98807.22;;;24.63;33.46
59154;BME280;44935;48.944;9.418;2023-07-16T11:24:40;98813.86;;;25.11;34.32
59154;BME280;44935;48.944;9.418;2023-07-16T11:27:13;98814.08;;;24.77;34.66
59154;BME280;44935;48.944;9.418;2023-07-16T11:29:44;98812.73;;;24.06;33.69
59154;BME280;44935;48.944;9.418;2023-07-16T11:32:12;98811.42;;;24.41;34.42
59154;BME280;44935;48.944;9.418;2023-07-16T11:34:51;98807.85;;;25.25;33.42
59154;BME280;44935;48.944;9.418;2023-07-16T11:37:19;98807.70;;;22.32;37.18
59154;BME280;44935;48.944;9.418;2023-07-16T11:39:46;98813.38;;;21.17;38.86
59154;BME280;44935;48.944;9.418;2023-07-16T11:42:13;98803.01;;;22.53;36.48
59154;BME280;44935;48.944;9.418;2023-07-16T11:44:40;98796.38;;;24.42;35.57
59154;BME280;44935;48.944;9.418;2023-07-16T11:47:07;98799.50;;;24.36;34.39
59154;BME280;44935;48.944;9.418;2023-07-16T11:49:34;98800.63;;;25.47;33.27
59154;BME280;44935;48.944;9.418;2023-07-16T11:52:01;98798.89;;;25.41;34.03
59154;BME280;44935;48.944;9.418;2023-07-16T11:54:28;98791.76;;;26.07;32.77
59154;BME280;44935;48.944;9.418;2023-07-16T11:56:55;98789.00;;;25.68;33.39
59154;BME280;44935;48.944;9.418;2023-07-16T11:59:22;98795.91;;;25.64;32.56
59154;BME280;44935;48.944;9.418;2023-07-16T12:01:48;98795.30;;;24.74;33.34
59154;BME280;44935;48.944;9.418;2023-07-16T12:04:16;98792.32;;;25.08;32.38
59154;BME280;44935;48.944;9.418;2023-07-16T12:06:43;98788.78;;;26.22;32.04
59154;BME280;44935;48.944;9.418;2023-07-16T12:09:10;98781.54;;;25.54;32.94
59154;BME280;44935;48.944;9.418;2023-07-16T12:11:37;98776.89;;;25.81;32.01
59154;BME280;44935;48.944;9.418;2023-07-16T12:14:05;98778.03;;;25.91;32.34
59154;BME280;44935;48.944;9.418;2023-07-16T12:16:32;98772.16;;;26.58;32.19
59154;BME280;44935;48.944;9.418;2023-07-16T12:18:59;98772.81;;;26.78;30.02
59154;BME280;44935;48.944;9.418;2023-07-16T12:21:26;98774.80;;;26.80;31.08
59154;BME280;44935;48.944;9.418;2023-07-16T12:23:53;98767.72;;;27.20;30.19
59154;BME280;44935;48.944;9.418;2023-07-16T12:26:19;98766.22;;;27.07;29.38
59154;BME280;44935;48.944;9.418;2023-07-16T12:28:46;98767.63;;;26.05;31.37
59154;BME280;44935;48.944;9.418;2023-07-16T12:31:14;98768.70;;;25.89;31.10
59154;BME280;44935;48.944;9.418;2023-07-16T12:33:41;98760.36;;;26.81;29.92
59154;BME280;44935;48.944;9.418;2023-07-16T12:36:08;98757.01;;;26.73;31.65
59154;BME280;44935;48.944;9.418;2023-07-16T12:38:35;98756.05;;;25.38;33.07
59154;BME280;44935;48.944;9.418;2023-07-16T12:41:02;98747.95;;;27.09;30.61
59154;BME280;44935;48.944;9.418;2023-07-16T12:43:29;98747.13;;;27.37;29.79
59154;BME280;44935;48.944;9.418;2023-07-16T12:45:56;98744.26;;;27.40;29.40
59154;BME280;44935;48.944;9.418;2023-07-16T12:48:23;98742.62;;;27.55;29.44
59154;BME280;44935;48.944;9.418;2023-07-16T12:50:51;98739.41;;;27.12;29.67
59154;BME280;44935;48.944;9.418;2023-07-16T12:53:18;98747.28;;;27.52;28.97
59154;BME280;44935;48.944;9.418;2023-07-16T12:55:44;98744.54;;;26.51;29.46
59154;BME280;44935;48.944;9.418;2023-07-16T12:58:11;98746.63;;;26.17;29.85
59154;BME280;44935;48.944;9.418;2023-07-16T13:00:38;98748.61;;;26.47;29.80